createdAt,value
2023-05-10T00:00:00.647Z,100693.69
2023-05-10T00:00:32.303Z,100692.75
2023-05-10T00:01:03.906Z,100693.56
2023-05-10T00:01:35.496Z,100690.31
2023-05-10T00:02:07.165Z,100693.56
2023-05-10T00:02:39.221Z,100689.84
2023-05-10T00:03:11.019Z,100682.41
2023-05-10T00:03:43.081Z,100685.44
2023-05-10T00:04:14.969Z,100691.38
2023-05-10T00:04:46.638Z,100687.84
2023-05-10T00:05:18.232Z,100690.75
2023-05-10T00:05:49.809Z,100691.38
2023-05-10T00:06:21.463Z,100687.75
2023-05-10T00:06:53.053Z,100692.63
2023-05-10T00:07:24.653Z,100690.44
2023-05-10T00:07:56.211Z,100688.34
2023-05-10T00:08:27.786Z,100689.59
2023-05-10T00:08:59.368Z,100684.59
2023-05-10T00:09:30.976Z,100687.28
2023-05-10T00:10:02.710Z,100684.59
2023-05-10T00:10:34.316Z,100686.47
2023-05-10T00:11:05.989Z,100686.47
2023-05-10T00:11:37.527Z,100688.91
2023-05-10T00:12:09.074Z,100683.09
2023-05-10T00:12:40.646Z,100678.91
2023-05-10T00:13:12.242Z,100687.28
2023-05-10T00:13:44.702Z,100686.25
2023-05-10T00:14:16.519Z,100685.31
2023-05-10T00:14:48.050Z,100687.75
2023-05-10T00:15:19.584Z,100686.13
2023-05-10T00:15:51.612Z,100687.19
2023-05-10T00:16:23.286Z,100676.34
2023-05-10T00:16:54.936Z,100687.03
2023-05-10T00:17:26.624Z,100685.41
2023-05-10T00:17:58.307Z,100686.25
2023-05-10T00:18:29.911Z,100691.81
2023-05-10T00:19:01.508Z,100684.50
2023-05-10T00:19:33.065Z,100692.16
2023-05-10T00:20:05.981Z,100683.22
2023-05-10T00:20:37.586Z,100676.59
2023-05-10T00:21:09.144Z,100684.25
2023-05-10T00:21:40.719Z,100681.69
2023-05-10T00:22:12.343Z,100684.50
2023-05-10T00:22:43.917Z,100682.28
2023-05-10T00:23:15.800Z,100682.50
2023-05-10T00:23:47.325Z,100680.22
2023-05-10T00:24:18.828Z,100681.25
2023-05-10T00:24:50.352Z,100685.88
2023-05-10T00:25:40.220Z,100687.03
2023-05-10T00:26:11.829Z,100678.00
2023-05-10T00:26:43.833Z,100681.13
2023-05-10T00:27:15.532Z,100685.31
2023-05-10T00:27:47.162Z,100684.25
2023-05-10T00:28:18.756Z,100684.84
2023-05-10T00:28:50.577Z,100679.25
2023-05-10T00:29:23.312Z,100680.88
2023-05-10T00:29:54.830Z,100678.44
2023-05-10T00:30:26.428Z,100676.59
2023-05-10T00:30:58.072Z,100676.81
2023-05-10T00:31:29.733Z,100678.91
2023-05-10T00:32:03.018Z,100671.25
2023-05-10T00:32:34.622Z,100677.75
2023-05-10T00:33:06.306Z,100676.25
2023-05-10T00:33:37.965Z,100671.25
2023-05-10T00:34:09.544Z,100673.56
2023-05-10T00:34:41.580Z,100681.00
2023-05-10T00:35:13.261Z,100671.59
2023-05-10T00:35:44.879Z,100676.13
2023-05-10T00:36:16.508Z,100671.16
2023-05-10T00:36:48.299Z,100664.19
2023-05-10T00:37:19.900Z,100672.06
2023-05-10T00:37:51.503Z,100676.00
2023-05-10T00:38:23.033Z,100680.06
2023-05-10T00:38:54.591Z,100674.25
2023-05-10T00:39:27.501Z,100673.81
2023-05-10T00:39:59.080Z,100676.81
2023-05-10T00:40:31.560Z,100673.00
2023-05-10T00:41:07.807Z,100670.56
2023-05-10T00:41:40.862Z,100675.19
2023-05-10T00:42:12.882Z,100673.44
2023-05-10T00:42:44.444Z,100675.06
2023-05-10T00:43:16.007Z,100671.72
2023-05-10T00:43:47.599Z,100670.09
2023-05-10T00:44:19.558Z,100663.56
2023-05-10T00:44:51.181Z,100664.16
2023-05-10T00:45:22.722Z,100659.84
2023-05-10T00:45:54.731Z,100661.03
2023-05-10T00:46:27.141Z,100672.63
2023-05-10T00:46:59.270Z,100670.91
2023-05-10T00:47:31.150Z,100674.50
2023-05-10T00:48:03.646Z,100668.91
2023-05-10T00:48:35.571Z,100668.00
2023-05-10T00:49:07.376Z,100668.09
2023-05-10T00:49:39.093Z,100662.09
2023-05-10T00:50:10.962Z,100664.75
2023-05-10T00:50:42.606Z,100669.06
2023-05-10T00:51:14.603Z,100661.94
2023-05-10T00:51:46.191Z,100663.94
2023-05-10T00:52:17.769Z,100661.94
2023-05-10T00:52:50.262Z,100655.69
2023-05-10T00:53:22.499Z,100656.75
2023-05-10T00:53:54.214Z,100664.03
2023-05-10T00:54:25.805Z,100658.22
2023-05-10T00:54:57.979Z,100664.16
2023-05-10T00:55:29.624Z,100664.16
2023-05-10T00:56:01.411Z,100664.03
2023-05-10T00:56:33.083Z,100665.66
2023-05-10T00:57:05.128Z,100668.91
2023-05-10T00:57:36.748Z,100671.00
2023-05-10T00:58:08.578Z,100661.94
2023-05-10T00:58:43.158Z,100671.00
2023-05-10T00:59:15.128Z,100665.19
2023-05-10T00:59:47.096Z,100662.75
2023-05-10T01:00:19.293Z,100665.66
2023-05-10T01:00:51.923Z,100660.66
2023-05-10T01:01:24.184Z,100666.50
2023-05-10T01:01:56.971Z,100661.16
2023-05-10T01:02:28.726Z,100667.75
2023-05-10T01:03:02.640Z,100666.38
2023-05-10T01:03:34.389Z,100668.47
2023-05-10T01:04:06.607Z,100669.16
2023-05-10T01:04:38.711Z,100660.22
2023-05-10T01:05:10.597Z,100664.88
2023-05-10T01:05:42.154Z,100670.78
2023-05-10T01:06:14.088Z,100672.88
2023-05-10T01:06:45.636Z,100665.44
2023-05-10T01:07:17.931Z,100667.31
2023-05-10T01:07:49.505Z,100668.69
2023-05-10T01:08:21.443Z,100668.34
2023-05-10T01:08:53.013Z,100666.84
2023-05-10T01:09:27.302Z,100667.91
2023-05-10T01:09:59.022Z,100672.53
2023-05-10T01:10:31.618Z,100665.09
2023-05-10T01:11:03.828Z,100666.03
2023-05-10T01:11:39.319Z,100668.47
2023-05-10T01:12:10.991Z,100672.19
2023-05-10T01:12:46.496Z,100664.16
2023-05-10T01:13:31.787Z,100665.09
2023-05-10T01:14:03.721Z,100664.84
2023-05-10T01:14:37.304Z,100670.91
2023-05-10T01:15:09.562Z,100663.81
2023-05-10T01:15:41.935Z,100666.25
2023-05-10T01:16:14.427Z,100663.22
2023-05-10T01:16:48.429Z,100656.97
2023-05-10T01:17:21.064Z,100664.63
2023-05-10T01:17:53.350Z,100667.41
2023-05-10T01:18:25.656Z,100665.91
2023-05-10T01:18:57.312Z,100667.06
2023-05-10T01:19:30.628Z,100668.22
2023-05-10T01:20:03.118Z,100670.00
2023-05-10T01:20:41.745Z,100664.03
2023-05-10T01:21:19.649Z,100661.50
2023-05-10T01:21:57.484Z,100665.56
2023-05-10T01:22:51.384Z,100666.84
2023-05-10T01:23:45.365Z,100663.00
2023-05-10T01:24:28.933Z,100668.69
2023-05-10T01:25:02.933Z,100671.25
2023-05-10T01:25:49.096Z,100667.31
2023-05-10T01:26:21.690Z,100672.41
2023-05-10T01:27:08.176Z,100672.63
2023-05-10T01:27:51.563Z,100673.09
2023-05-10T01:28:43.950Z,100676.00
2023-05-10T01:29:30.869Z,100668.22
2023-05-10T01:30:27.398Z,100667.06
2023-05-10T01:31:24.680Z,100675.31
2023-05-10T01:32:08.251Z,100665.78
2023-05-10T01:33:07.335Z,100673.44
2023-05-10T01:33:57.801Z,100671.34
2023-05-10T01:34:36.830Z,100670.75
2023-05-10T01:35:22.798Z,100669.03
2023-05-10T01:36:03.329Z,100671.00
2023-05-10T01:36:41.432Z,100667.31
2023-05-10T01:37:17.297Z,100682.03
2023-05-10T01:37:57.716Z,100677.81
2023-05-10T01:39:03.260Z,100672.28
2023-05-10T01:39:45.902Z,100676.00
2023-05-10T01:40:32.344Z,100679.50
2023-05-10T01:41:26.843Z,100671.00
2023-05-10T01:42:10.759Z,100674.84
2023-05-10T01:42:49.001Z,100671.94
2023-05-10T01:43:29.878Z,100676.13
2023-05-10T01:44:30.790Z,100671.00
2023-05-10T01:45:19.862Z,100672.19
2023-05-10T01:46:13.440Z,100671.13
2023-05-10T01:46:52.369Z,100677.41
2023-05-10T01:47:43.513Z,100680.41
2023-05-10T01:48:15.867Z,100666.94
2023-05-10T01:48:53.498Z,100670.91
2023-05-10T01:49:28.136Z,100675.66
2023-05-10T01:50:05.495Z,100668.22
2023-05-10T01:50:39.873Z,100670.91
2023-05-10T01:51:12.133Z,100664.03
2023-05-10T01:51:48.398Z,100673.56
2023-05-10T01:52:23.168Z,100669.50
2023-05-10T01:52:56.334Z,100668.94
2023-05-10T01:53:28.355Z,100671.81
2023-05-10T01:54:03.885Z,100670.56
2023-05-10T01:54:36.618Z,100670.09
2023-05-10T01:55:10.607Z,100679.16
2023-05-10T01:55:50.555Z,100666.03
2023-05-10T01:56:25.290Z,100673.47
2023-05-10T01:57:00.518Z,100661.50
2023-05-10T01:57:37.195Z,100667.66
2023-05-10T01:58:11.241Z,100671.72
2023-05-10T01:58:46.981Z,100669.06
2023-05-10T01:59:20.366Z,100668.00
2023-05-10T01:59:52.351Z,100672.41
2023-05-10T02:00:24.605Z,100667.44
2023-05-10T02:01:00.176Z,100672.88
2023-05-10T02:01:32.089Z,100670.44
2023-05-10T02:02:05.532Z,100668.81
2023-05-10T02:02:39.174Z,100673.56
2023-05-10T02:03:12.440Z,100674.03
2023-05-10T02:03:44.663Z,100673.56
2023-05-10T02:04:18.025Z,100667.53
2023-05-10T02:04:52.331Z,100670.78
2023-05-10T02:05:24.040Z,100667.19
2023-05-10T02:05:56.241Z,100668.34
2023-05-10T02:06:28.080Z,100663.94
2023-05-10T02:06:59.981Z,100670.66
2023-05-10T02:07:33.212Z,100669.84
2023-05-10T02:08:07.734Z,100669.38
2023-05-10T02:08:39.989Z,100674.72
2023-05-10T02:09:12.473Z,100669.50
2023-05-10T02:09:48.565Z,100663.59
2023-05-10T02:10:20.803Z,100664.03
2023-05-10T02:10:55.766Z,100675.19
2023-05-10T02:11:28.738Z,100673.22
2023-05-10T02:12:03.514Z,100671.47
2023-05-10T02:12:39.824Z,100674.63
2023-05-10T02:13:12.662Z,100677.31
2023-05-10T02:13:44.635Z,100678.59
2023-05-10T02:14:16.759Z,100682.16
2023-05-10T02:14:48.801Z,100685.78
2023-05-10T02:15:25.758Z,100680.56
2023-05-10T02:15:58.071Z,100678.91
2023-05-10T02:16:32.005Z,100676.81
2023-05-10T02:17:06.384Z,100684.00
2023-05-10T02:17:38.734Z,100683.94
2023-05-10T02:18:11.921Z,100685.31
2023-05-10T02:18:43.814Z,100684.97
2023-05-10T02:19:15.885Z,100678.34
2023-05-10T02:19:48.376Z,100682.41
2023-05-10T02:20:20.335Z,100685.66
2023-05-10T02:20:53.452Z,100689.28
2023-05-10T02:21:25.749Z,100684.16
2023-05-10T02:21:58.304Z,100688.22
2023-05-10T02:22:30.259Z,100682.41
2023-05-10T02:23:02.750Z,100682.31
2023-05-10T02:23:36.068Z,100688.00
2023-05-10T02:24:08.516Z,100688.56
2023-05-10T02:24:41.062Z,100689.84
2023-05-10T02:25:14.304Z,100691.94
2023-05-10T02:25:46.505Z,100683.34
2023-05-10T02:26:19.487Z,100691.47
2023-05-10T02:26:52.680Z,100684.84
2023-05-10T02:27:25.095Z,100688.91
2023-05-10T02:27:58.088Z,100695.19
2023-05-10T02:28:30.289Z,100687.75
2023-05-10T02:29:04.416Z,100686.13
2023-05-10T02:29:36.939Z,100690.19
2023-05-10T02:30:09.332Z,100687.75
2023-05-10T02:30:41.427Z,100686.81
2023-05-10T02:31:13.334Z,100686.94
2023-05-10T02:31:45.014Z,100690.66
2023-05-10T02:32:17.522Z,100692.75
2023-05-10T02:32:50.502Z,100693.69
2023-05-10T02:33:23.232Z,100688.44
2023-05-10T02:33:55.218Z,100683.69
2023-05-10T02:34:27.804Z,100689.72
2023-05-10T02:34:59.765Z,100696.56
2023-05-10T02:35:32.040Z,100688.44
2023-05-10T02:36:04.749Z,100686.69
2023-05-10T02:36:36.597Z,100685.41
2023-05-10T02:37:10.115Z,100696.69
2023-05-10T02:37:42.327Z,100689.13
2023-05-10T02:38:14.598Z,100690.75
2023-05-10T02:38:47.107Z,100686.94
2023-05-10T02:39:20.619Z,100691.56
2023-05-10T02:39:53.398Z,100691.22
2023-05-10T02:40:26.169Z,100688.34
2023-05-10T02:41:00.357Z,100693.66
2023-05-10T02:41:33.556Z,100688.44
2023-05-10T02:42:06.097Z,100692.38
2023-05-10T02:42:38.862Z,100691.69
2023-05-10T02:43:13.374Z,100683.91
2023-05-10T02:43:45.354Z,100691.69
2023-05-10T02:44:19.905Z,100686.94
2023-05-10T02:44:55.009Z,100686.56
2023-05-10T02:45:29.239Z,100692.38
2023-05-10T02:46:00.907Z,100685.19
2023-05-10T02:46:32.719Z,100686.00
2023-05-10T02:47:05.098Z,100683.31
2023-05-10T02:47:36.865Z,100684.94
2023-05-10T02:48:08.720Z,100683.78
2023-05-10T02:48:40.332Z,100685.53
2023-05-10T02:49:12.040Z,100685.53
2023-05-10T02:49:43.691Z,100681.94
2023-05-10T02:50:16.116Z,100685.41
2023-05-10T02:50:52.510Z,100686.00
2023-05-10T02:51:26.616Z,100685.66
2023-05-10T02:52:02.203Z,100687.50
2023-05-10T02:52:41.764Z,100688.66
2023-05-10T02:53:17.508Z,100680.06
2023-05-10T02:53:50.547Z,100690.75
2023-05-10T02:54:28.530Z,100686.22
2023-05-10T02:55:02.364Z,100686.56
2023-05-10T02:55:37.852Z,100682.84
2023-05-10T02:56:15.199Z,100688.09
2023-05-10T02:56:52.634Z,100687.84
2023-05-10T02:57:28.796Z,100685.31
2023-05-10T02:58:02.807Z,100689.13
2023-05-10T02:58:34.383Z,100687.03
2023-05-10T02:59:06.038Z,100689.47
2023-05-10T02:59:38.017Z,100690.28
2023-05-10T03:00:09.991Z,100688.31
2023-05-10T03:00:41.622Z,100691.81
2023-05-10T03:01:13.274Z,100689.13
2023-05-10T03:01:44.937Z,100688.19
2023-05-10T03:02:16.519Z,100696.94
2023-05-10T03:02:48.334Z,100694.72
2023-05-10T03:03:20.936Z,100688.19
2023-05-10T03:03:54.457Z,100693.09
2023-05-10T03:04:26.151Z,100696.69
2023-05-10T03:05:00.567Z,100691.47
2023-05-10T03:05:32.430Z,100692.06
2023-05-10T03:06:06.521Z,100687.84
2023-05-10T03:06:38.213Z,100689.13
2023-05-10T03:07:10.321Z,100693.53
2023-05-10T03:07:42.042Z,100688.00
2023-05-10T03:08:13.737Z,100690.28
2023-05-10T03:08:46.024Z,100687.97
2023-05-10T03:09:18.680Z,100690.28
2023-05-10T03:09:50.870Z,100695.63
2023-05-10T03:10:28.235Z,100683.66
2023-05-10T03:11:09.038Z,100688.09
2023-05-10T03:11:58.113Z,100695.88
2023-05-10T03:12:56.980Z,100693.69
2023-05-10T03:13:28.679Z,100693.09
2023-05-10T03:14:11.519Z,100686.81
2023-05-10T03:14:57.940Z,100695.06
2023-05-10T03:15:34.597Z,100693.78
2023-05-10T03:16:16.661Z,100692.63
2023-05-10T03:16:57.173Z,100700.66
2023-05-10T03:17:57.163Z,100690.06
2023-05-10T03:18:39.887Z,100684.94
2023-05-10T03:19:19.455Z,100689.47
2023-05-10T03:19:59.074Z,100696.34
2023-05-10T03:20:36.617Z,100686.22
2023-05-10T03:21:10.004Z,100688.66
2023-05-10T03:21:45.385Z,100689.00
2023-05-10T03:22:25.280Z,100692.53
2023-05-10T03:23:02.829Z,100694.00
2023-05-10T03:23:42.538Z,100686.13
2023-05-10T03:24:16.650Z,100686.56
2023-05-10T03:24:50.055Z,100693.09
2023-05-10T03:25:23.150Z,100701.81
2023-05-10T03:25:56.557Z,100698.66
2023-05-10T03:26:29.258Z,100694.94
2023-05-10T03:27:09.690Z,100693.09
2023-05-10T03:27:43.158Z,100690.75
2023-05-10T03:28:18.074Z,100693.66
2023-05-10T03:28:50.476Z,100695.88
2023-05-10T03:29:22.938Z,100696.69
2023-05-10T03:29:55.956Z,100686.94
2023-05-10T03:30:27.935Z,100692.28
2023-05-10T03:31:00.231Z,100699.59
2023-05-10T03:31:32.071Z,100696.34
2023-05-10T03:32:04.667Z,100698.44
2023-05-10T03:32:37.189Z,100694.16
2023-05-10T03:33:09.271Z,100694.16
2023-05-10T03:33:51.842Z,100698.31
2023-05-10T03:34:31.453Z,100694.72
2023-05-10T03:35:09.011Z,100698.88
2023-05-10T03:35:41.086Z,100697.25
2023-05-10T03:36:12.711Z,100693.53
2023-05-10T03:36:44.471Z,100692.28
2023-05-10T03:37:16.070Z,100696.81
2023-05-10T03:37:48.541Z,100695.41
2023-05-10T03:38:20.189Z,100700.06
2023-05-10T03:38:51.705Z,100693.91
2023-05-10T03:39:23.551Z,100699.59
2023-05-10T03:39:59.632Z,100699.13
2023-05-10T03:40:32.895Z,100699.72
2023-05-10T03:41:04.794Z,100702.03
2023-05-10T03:41:36.379Z,100699.13
2023-05-10T03:42:08.034Z,100698.88
2023-05-10T03:42:39.602Z,100704.22
2023-05-10T03:43:11.124Z,100706.31
2023-05-10T03:43:42.753Z,100701.91
2023-05-10T03:44:14.304Z,100706.31
2023-05-10T03:44:46.118Z,100711.66
2023-05-10T03:45:17.702Z,100703.88
2023-05-10T03:45:49.422Z,100712.03
2023-05-10T03:46:21.109Z,100708.66
2023-05-10T03:46:52.834Z,100711.44
2023-05-10T03:47:24.654Z,100707.50
2023-05-10T03:47:56.359Z,100706.31
2023-05-10T03:48:27.952Z,100708.75
2023-05-10T03:49:00.287Z,100707.94
2023-05-10T03:49:31.972Z,100713.44
2023-05-10T03:50:04.531Z,100711.22
2023-05-10T03:50:36.235Z,100710.50
2023-05-10T03:51:08.234Z,100703.53
2023-05-10T03:51:39.746Z,100715.03
2023-05-10T03:52:11.290Z,100705.16
2023-05-10T03:52:42.839Z,100710.97
2023-05-10T03:53:14.464Z,100711.91
2023-05-10T03:53:46.303Z,100710.97
2023-05-10T03:54:17.948Z,100707.13
2023-05-10T03:54:49.574Z,100711.22
2023-05-10T03:55:21.498Z,100709.81
2023-05-10T03:55:53.028Z,100712.25
2023-05-10T03:56:24.623Z,100717.00
2023-05-10T03:56:56.254Z,100721.91
2023-05-10T03:57:28.108Z,100716.56
2023-05-10T03:57:59.649Z,100716.56
2023-05-10T03:58:31.207Z,100717.25
2023-05-10T03:59:08.288Z,100718.75
2023-05-10T03:59:39.919Z,100717.59
2023-05-10T04:00:12.350Z,100716.78
2023-05-10T04:00:46.549Z,100719.34
2023-05-10T04:01:19.221Z,100723.97
2023-05-10T04:01:51.984Z,100711.66
2023-05-10T04:02:23.647Z,100719.56
2023-05-10T04:02:55.317Z,100724.38
2023-05-10T04:03:28.138Z,100718.19
2023-05-10T04:03:59.853Z,100719.84
2023-05-10T04:04:31.438Z,100733.03
2023-05-10T04:05:03.636Z,100715.72
2023-05-10T04:05:35.279Z,100722.00
2023-05-10T04:06:09.211Z,100726.06
2023-05-10T04:06:40.782Z,100720.38
2023-05-10T04:07:12.449Z,100732.34
2023-05-10T04:07:45.337Z,100725.84
2023-05-10T04:08:17.501Z,100726.00
2023-05-10T04:08:49.056Z,100732.50
2023-05-10T04:09:20.636Z,100734.81
2023-05-10T04:09:52.242Z,100729.69
2023-05-10T04:10:23.785Z,100728.16
2023-05-10T04:10:55.482Z,100730.72
2023-05-10T04:11:27.064Z,100726.53
2023-05-10T04:12:00.080Z,100724.09
2023-05-10T04:12:31.652Z,100727.00
2023-05-10T04:13:03.236Z,100727.69
2023-05-10T04:13:34.960Z,100726.66
2023-05-10T04:14:06.521Z,100723.31
2023-05-10T04:14:38.367Z,100725.41
2023-05-10T04:15:10.249Z,100724.38
2023-05-10T04:15:42.380Z,100721.78
2023-05-10T04:16:14.110Z,100729.59
2023-05-10T04:16:45.823Z,100726.34
2023-05-10T04:17:17.492Z,100726.34
2023-05-10T04:17:51.384Z,100728.91
2023-05-10T04:18:22.947Z,100729.31
2023-05-10T04:18:54.486Z,100720.72
2023-05-10T04:19:30.382Z,100726.44
2023-05-10T04:20:02.084Z,100724.91
2023-05-10T04:20:34.108Z,100731.88
2023-05-10T04:21:05.743Z,100722.81
2023-05-10T04:21:37.445Z,100719.34
2023-05-10T04:22:09.410Z,100727.69
2023-05-10T04:22:40.965Z,100725.63
2023-05-10T04:23:12.585Z,100728.44
2023-05-10T04:23:44.276Z,100717.72
2023-05-10T04:24:15.889Z,100724.25
2023-05-10T04:24:47.432Z,100722.97
2023-05-10T04:25:19.262Z,100722.47
2023-05-10T04:25:50.811Z,100727.28
2023-05-10T04:26:23.106Z,100722.25
2023-05-10T04:26:57.647Z,100724.38
2023-05-10T04:27:29.639Z,100720.72
2023-05-10T04:28:01.144Z,100720.16
2023-05-10T04:28:33.877Z,100724.78
2023-05-10T04:29:05.447Z,100722.25
2023-05-10T04:29:36.966Z,100728.91
2023-05-10T04:30:09.000Z,100725.06
2023-05-10T04:30:41.459Z,100726.00
2023-05-10T04:31:13.276Z,100727.63
2023-05-10T04:31:44.844Z,100727.84
2023-05-10T04:32:18.156Z,100720.25
2023-05-10T04:32:49.746Z,100726.81
2023-05-10T04:33:21.293Z,100724.72
2023-05-10T04:33:53.259Z,100729.47
2023-05-10T04:34:24.893Z,100728.06
2023-05-10T04:34:56.561Z,100723.53
2023-05-10T04:35:29.127Z,100730.06
2023-05-10T04:36:01.727Z,100735.06
2023-05-10T04:36:37.492Z,100736.56
2023-05-10T04:37:09.030Z,100736.91
2023-05-10T04:37:40.608Z,100728.06
2023-05-10T04:38:12.160Z,100732.94
2023-05-10T04:38:43.763Z,100737.25
2023-05-10T04:39:15.381Z,100732.38
2023-05-10T04:39:46.960Z,100738.53
2023-05-10T04:40:18.840Z,100739.81
2023-05-10T04:40:50.564Z,100740.97
2023-05-10T04:41:22.128Z,100736.44
2023-05-10T04:41:54.471Z,100735.16
2023-05-10T04:42:26.360Z,100733.88
2023-05-10T04:42:57.879Z,100738.41
2023-05-10T04:43:29.378Z,100738.28
2023-05-10T04:44:00.936Z,100741.19
2023-05-10T04:44:33.284Z,100738.28
2023-05-10T04:45:05.266Z,100740.97
2023-05-10T04:45:36.876Z,100741.44
2023-05-10T04:46:08.515Z,100735.84
2023-05-10T04:46:40.482Z,100737.59
2023-05-10T04:47:14.109Z,100739.56
2023-05-10T04:47:45.863Z,100740.38
2023-05-10T04:48:17.448Z,100742.94
2023-05-10T04:48:49.045Z,100737.59
2023-05-10T04:49:20.962Z,100740.75
2023-05-10T04:49:52.535Z,100743.28
2023-05-10T04:50:24.082Z,100740.75
2023-05-10T04:50:56.061Z,100748.16
2023-05-10T04:51:27.608Z,100739.56
2023-05-10T04:51:59.173Z,100743.28
2023-05-10T04:52:30.748Z,100744.22
2023-05-10T04:53:02.298Z,100748.97
2023-05-10T04:53:34.241Z,100742.94
2023-05-10T04:54:06.796Z,100750.50
2023-05-10T04:54:38.564Z,100749.44
2023-05-10T04:55:11.008Z,100742.22
2023-05-10T04:55:42.742Z,100744.00
2023-05-10T04:56:14.259Z,100749.56
2023-05-10T04:56:45.784Z,100751.75
2023-05-10T04:57:17.363Z,100751.06
2023-05-10T04:57:49.054Z,100747.47
2023-05-10T04:58:20.602Z,100755.16
2023-05-10T04:58:52.165Z,100756.78
2023-05-10T04:59:23.711Z,100750.97
2023-05-10T04:59:55.269Z,100752.13
2023-05-10T05:00:26.868Z,100746.78
2023-05-10T05:00:58.459Z,100761.19
2023-05-10T05:01:30.308Z,100748.97
2023-05-10T05:02:02.069Z,100748.88
2023-05-10T05:02:33.731Z,100753.63
2023-05-10T05:03:05.407Z,100756.78
2023-05-10T05:03:37.705Z,100751.44
2023-05-10T05:04:09.318Z,100752.91
2023-05-10T05:04:40.858Z,100750.72
2023-05-10T05:05:13.374Z,100761.19
2023-05-10T05:05:45.850Z,100754.31
2023-05-10T05:06:17.452Z,100755.50
2023-05-10T05:06:49.178Z,100754.44
2023-05-10T05:07:21.177Z,100758.84
2023-05-10T05:07:52.881Z,100756.19
2023-05-10T05:08:25.050Z,100758.97
2023-05-10T05:08:56.664Z,100752.47
2023-05-10T05:09:28.252Z,100761.41
2023-05-10T05:09:59.772Z,100765.13
2023-05-10T05:10:31.408Z,100761.63
2023-05-10T05:11:03.030Z,100766.44
2023-05-10T05:11:34.583Z,100764.66
2023-05-10T05:12:06.422Z,100762.56
2023-05-10T05:12:38.063Z,100768.63
2023-05-10T05:13:09.698Z,100759.66
2023-05-10T05:13:41.223Z,100765.00
2023-05-10T05:14:12.807Z,100760.34
2023-05-10T05:14:44.413Z,100752.69
2023-05-10T05:15:17.623Z,100756.06
2023-05-10T05:15:49.302Z,100748.38
2023-05-10T05:16:20.964Z,100746.09
2023-05-10T05:16:53.411Z,100748.16
2023-05-10T05:17:25.000Z,100748.63
2023-05-10T05:17:56.647Z,100740.50
2023-05-10T05:18:28.221Z,100743.75
2023-05-10T05:19:00.832Z,100747.47
2023-05-10T05:19:32.667Z,100745.50
2023-05-10T05:20:04.864Z,100748.88
2023-05-10T05:20:36.487Z,100747.47
2023-05-10T05:21:18.053Z,100743.19
2023-05-10T05:21:49.657Z,100744.09
2023-05-10T05:22:27.940Z,100745.38
2023-05-10T05:22:59.631Z,100750.63
2023-05-10T05:23:31.189Z,100752.34
2023-05-10T05:24:02.845Z,100753.97
2023-05-10T05:24:40.464Z,100753.50
2023-05-10T05:25:12.790Z,100753.50
2023-05-10T05:25:44.401Z,100751.63
2023-05-10T05:26:16.163Z,100756.53
2023-05-10T05:26:48.183Z,100760.50
2023-05-10T05:27:21.892Z,100760.84
2023-05-10T05:27:53.458Z,100753.75
2023-05-10T05:28:24.977Z,100756.31
2023-05-10T05:28:56.673Z,100759.31
2023-05-10T05:29:28.274Z,100764.09
2023-05-10T05:30:00.074Z,100758.72
2023-05-10T05:30:31.627Z,100765.13
2023-05-10T05:31:03.190Z,100764.66
2023-05-10T05:31:34.772Z,100765.00
2023-05-10T05:32:06.530Z,100760.72
2023-05-10T05:32:38.143Z,100760.59
2023-05-10T05:33:09.831Z,100768.16
2023-05-10T05:33:41.359Z,100766.63
2023-05-10T05:34:12.987Z,100766.97
2023-05-10T05:34:47.514Z,100763.16
2023-05-10T05:35:19.213Z,100768.50
2023-05-10T05:35:51.822Z,100766.19
2023-05-10T05:36:23.569Z,100764.22
2023-05-10T05:36:55.189Z,100770.25
2023-05-10T05:37:26.802Z,100768.38
2023-05-10T05:37:58.320Z,100776.06
2023-05-10T05:38:29.941Z,100777.22
2023-05-10T05:39:01.469Z,100776.75
2023-05-10T05:39:33.015Z,100777.91
2023-05-10T05:40:05.089Z,100770.81
2023-05-10T05:40:36.700Z,100775.13
2023-05-10T05:41:08.286Z,100778.50
2023-05-10T05:41:40.089Z,100778.25
2023-05-10T05:42:12.724Z,100775.81
2023-05-10T05:42:44.272Z,100775.81
2023-05-10T05:43:15.852Z,100775.81
2023-05-10T05:43:47.358Z,100785.59
2023-05-10T05:44:18.932Z,100783.25
2023-05-10T05:44:50.628Z,100782.91
2023-05-10T05:45:22.179Z,100781.63
2023-05-10T05:45:59.103Z,100788.13
2023-05-10T05:46:30.852Z,100784.78
2023-05-10T05:47:02.821Z,100780.47
2023-05-10T05:47:34.380Z,100780.34
2023-05-10T05:48:06.263Z,100781.75
2023-05-10T05:48:37.877Z,100776.97
2023-05-10T05:49:09.471Z,100786.75
2023-05-10T05:49:41.247Z,100779.88
2023-05-10T05:50:12.927Z,100772.56
2023-05-10T05:50:44.485Z,100781.63
2023-05-10T05:51:16.007Z,100778.25
2023-05-10T05:51:47.773Z,100779.19
2023-05-10T05:52:19.335Z,100777.91
2023-05-10T05:52:50.917Z,100784.41
2023-05-10T05:53:22.586Z,100776.06
2023-05-10T05:53:54.573Z,100779.88
2023-05-10T05:54:26.130Z,100776.97
2023-05-10T05:54:57.704Z,100776.06
2023-05-10T05:55:30.536Z,100786.75
2023-05-10T05:56:02.715Z,100779.19
2023-05-10T05:56:34.339Z,100781.16
2023-05-10T05:57:05.915Z,100768.97
2023-05-10T05:57:37.625Z,100779.44
2023-05-10T05:58:09.555Z,100778.50
2023-05-10T05:58:41.117Z,100785.81
2023-05-10T05:59:12.757Z,100782.56
2023-05-10T05:59:44.978Z,100792.22
2023-05-10T06:00:17.153Z,100788.53
2023-05-10T06:00:50.320Z,100785.84
2023-05-10T06:01:22.113Z,100784.44
2023-05-10T06:01:53.957Z,100792.00
2023-05-10T06:02:25.643Z,100788.16
2023-05-10T06:02:57.437Z,100790.44
2023-05-10T06:03:29.070Z,100786.72
2023-05-10T06:04:00.887Z,100798.56
2023-05-10T06:04:32.754Z,100798.94
2023-05-10T06:05:04.548Z,100797.44
2023-05-10T06:05:36.459Z,100791.16
2023-05-10T06:06:08.127Z,100782.31
2023-05-10T06:06:39.662Z,100796.06
2023-05-10T06:07:11.238Z,100793.75
2023-05-10T06:07:45.440Z,100789.31
2023-05-10T06:08:16.989Z,100788.16
2023-05-10T06:08:48.533Z,100793.50
2023-05-10T06:09:20.099Z,100787.94
2023-05-10T06:09:51.711Z,100791.78
2023-05-10T06:10:23.770Z,100783.16
2023-05-10T06:10:55.336Z,100788.75
2023-05-10T06:11:27.208Z,100783.84
2023-05-10T06:11:58.770Z,100783.41
2023-05-10T06:12:30.551Z,100790.72
2023-05-10T06:13:02.103Z,100781.53
2023-05-10T06:13:34.309Z,100787.47
2023-05-10T06:14:08.029Z,100779.56
2023-05-10T06:14:39.571Z,100781.19
2023-05-10T06:15:11.566Z,100787.47
2023-05-10T06:15:43.102Z,100784.28
2023-05-10T06:16:14.714Z,100785.56
2023-05-10T06:16:46.298Z,100785.09
2023-05-10T06:17:17.869Z,100787.78
2023-05-10T06:17:50.378Z,100786.72
2023-05-10T06:18:21.923Z,100787.94
2023-05-10T06:18:53.557Z,100790.38
2023-05-10T06:19:25.078Z,100785.72
2023-05-10T06:19:57.216Z,100785.91
2023-05-10T06:20:28.841Z,100794.75
2023-05-10T06:21:00.797Z,100792.06